createdAt,value
2019-03-26T00:01:06.711Z,2.07
2019-03-26T00:03:35.185Z,2.07
2019-03-26T00:06:03.597Z,2.33
2019-03-26T00:08:32.060Z,2.30
2019-03-26T00:11:02.109Z,3.00
2019-03-26T00:13:30.569Z,2.20
2019-03-26T00:15:59.144Z,2.23
2019-03-26T00:18:27.531Z,3.07
2019-03-26T00:20:55.935Z,2.53
2019-03-26T00:23:24.337Z,2.97
2019-03-26T00:25:52.744Z,2.23
2019-03-26T00:28:21.126Z,3.13
2019-03-26T00:30:49.503Z,2.60
2019-03-26T00:33:17.930Z,2.23
2019-03-26T00:35:48.896Z,3.80
2019-03-26T00:38:17.304Z,3.00
2019-03-26T00:40:45.708Z,2.33
2019-03-26T00:43:14.098Z,2.50
2019-03-26T00:45:42.596Z,2.47
2019-03-26T00:48:11.011Z,2.90
2019-03-26T00:50:39.387Z,2.90
2019-03-26T00:53:07.766Z,2.43
2019-03-26T00:55:36.169Z,2.70
2019-03-26T00:58:04.550Z,2.87
2019-03-26T01:00:37.416Z,3.10
2019-03-26T01:03:06.047Z,3.10
2019-03-26T01:05:34.417Z,3.23
2019-03-26T01:08:02.827Z,3.23
2019-03-26T01:10:31.211Z,2.77
2019-03-26T01:12:59.620Z,2.77
2019-03-26T01:15:28.050Z,3.37
2019-03-26T01:17:56.511Z,2.97
2019-03-26T01:20:25.031Z,2.97
2019-03-26T01:22:53.510Z,3.50
2019-03-26T01:25:21.895Z,3.20
2019-03-26T01:27:50.331Z,3.70
2019-03-26T01:30:18.746Z,2.90
2019-03-26T01:32:47.128Z,3.20
2019-03-26T01:35:15.535Z,3.53
2019-03-26T01:37:43.916Z,3.83
2019-03-26T01:40:12.315Z,2.90
2019-03-26T01:42:40.699Z,2.90
2019-03-26T01:45:09.098Z,2.97
2019-03-26T01:47:37.506Z,3.70
2019-03-26T01:50:05.984Z,4.80
2019-03-26T01:52:34.463Z,3.57
2019-03-26T01:55:03.304Z,3.17
2019-03-26T01:57:31.707Z,3.80
2019-03-26T02:00:00.321Z,3.40
2019-03-26T02:02:28.708Z,3.97
2019-03-26T02:05:00.228Z,3.97
2019-03-26T02:07:27.138Z,3.50
2019-03-26T02:09:55.583Z,3.57
2019-03-26T02:12:23.963Z,3.90
2019-03-26T02:14:52.358Z,2.90
2019-03-26T02:17:20.835Z,3.50
2019-03-26T02:19:49.225Z,3.67
2019-03-26T02:22:17.635Z,3.37
2019-03-26T02:24:47.359Z,3.40
2019-03-26T02:27:15.851Z,4.03
2019-03-26T02:29:44.329Z,3.80
2019-03-26T02:32:12.746Z,2.90
2019-03-26T02:34:41.114Z,3.70
2019-03-26T02:37:09.598Z,3.23
2019-03-26T02:39:38.000Z,4.10
2019-03-26T02:42:06.391Z,4.60
2019-03-26T02:44:34.788Z,3.93
2019-03-26T02:47:03.195Z,3.17
2019-03-26T02:49:31.660Z,4.00
2019-03-26T02:52:00.040Z,3.43
2019-03-26T02:54:28.443Z,3.57
2019-03-26T02:56:56.826Z,3.80
2019-03-26T02:59:25.199Z,3.20
2019-03-26T03:01:53.741Z,3.67
2019-03-26T03:04:22.160Z,3.30
2019-03-26T03:06:50.574Z,3.67
2019-03-26T03:09:18.961Z,3.30
2019-03-26T03:11:47.376Z,4.17
2019-03-26T03:14:15.753Z,3.83
2019-03-26T03:16:45.123Z,3.67
2019-03-26T03:19:15.914Z,4.53
2019-03-26T03:21:43.553Z,3.73
2019-03-26T03:24:11.963Z,3.50
2019-03-26T03:26:40.342Z,4.67
2019-03-26T03:29:08.831Z,3.20
2019-03-26T03:31:37.337Z,3.87
2019-03-26T03:34:05.757Z,4.43
2019-03-26T03:36:34.150Z,3.43
2019-03-26T03:39:02.505Z,2.83
2019-03-26T03:41:30.909Z,3.47
2019-03-26T03:43:59.293Z,3.77
2019-03-26T03:46:27.681Z,2.53
2019-03-26T03:48:56.109Z,3.17
2019-03-26T03:51:25.013Z,3.33
2019-03-26T03:53:53.390Z,3.27
2019-03-26T03:56:21.785Z,3.80
2019-03-26T03:58:50.177Z,4.07
2019-03-26T04:01:18.551Z,3.30
2019-03-26T04:03:46.980Z,3.80
2019-03-26T04:06:15.358Z,3.40
2019-03-26T04:08:43.741Z,3.17
2019-03-26T04:11:12.144Z,2.73
2019-03-26T04:13:40.558Z,3.37
2019-03-26T04:16:09.000Z,2.70
2019-03-26T04:18:37.376Z,2.60
2019-03-26T04:21:05.799Z,2.90
2019-03-26T04:23:34.204Z,3.00
2019-03-26T04:26:02.605Z,2.70
2019-03-26T04:28:31.032Z,3.20
2019-03-26T04:30:59.406Z,3.17
2019-03-26T04:33:27.790Z,2.30
2019-03-26T04:35:58.311Z,2.60
2019-03-26T04:38:27.564Z,2.23
2019-03-26T04:40:56.616Z,2.70
2019-03-26T04:43:25.000Z,3.50
2019-03-26T04:45:53.414Z,2.87
2019-03-26T04:48:21.795Z,2.53
2019-03-26T04:50:50.288Z,2.83
2019-03-26T04:53:18.781Z,2.77
2019-03-26T04:55:47.238Z,2.30
2019-03-26T04:58:15.657Z,2.53
2019-03-26T05:00:44.026Z,1.87
2019-03-26T05:03:12.435Z,3.03
2019-03-26T05:05:40.851Z,2.50
2019-03-26T05:08:09.268Z,2.57
2019-03-26T05:10:37.646Z,2.43
2019-03-26T05:13:06.066Z,2.53
2019-03-26T05:15:34.471Z,2.17
2019-03-26T05:18:02.877Z,2.00
2019-03-26T05:20:31.304Z,1.93
2019-03-26T05:22:59.710Z,1.93
2019-03-26T05:25:47.480Z,1.80
2019-03-26T05:28:15.852Z,2.30
2019-03-26T05:30:44.239Z,2.30
2019-03-26T05:33:12.644Z,2.70
2019-03-26T05:35:41.074Z,2.50
2019-03-26T05:38:09.483Z,2.00
2019-03-26T05:40:37.924Z,2.47
2019-03-26T05:43:06.308Z,2.00
2019-03-26T05:45:34.717Z,2.37
2019-03-26T05:48:03.136Z,2.57
2019-03-26T05:50:31.615Z,2.67
2019-03-26T05:53:00.048Z,3.27
2019-03-26T05:55:28.539Z,3.47
2019-03-26T05:57:57.843Z,3.10
2019-03-26T06:00:26.386Z,2.63
2019-03-26T06:02:54.778Z,3.03
2019-03-26T06:05:23.167Z,2.27
2019-03-26T06:07:51.581Z,2.30
2019-03-26T06:10:19.964Z,2.57
2019-03-26T06:12:50.296Z,2.47
2019-03-26T06:15:18.429Z,2.57
2019-03-26T06:17:46.855Z,3.23
2019-03-26T06:20:15.236Z,2.87
2019-03-26T06:22:43.623Z,2.90
2019-03-26T06:25:12.035Z,2.70
2019-03-26T06:27:40.482Z,2.97
2019-03-26T06:30:09.436Z,2.97
2019-03-26T06:32:37.902Z,3.20
2019-03-26T06:35:08.437Z,2.70
2019-03-26T06:37:37.059Z,2.43
2019-03-26T06:40:07.914Z,2.67
2019-03-26T06:42:36.301Z,2.67
2019-03-26T06:45:09.411Z,3.40
2019-03-26T06:47:37.791Z,3.67
2019-03-26T06:50:08.152Z,4.10
2019-03-26T06:52:36.567Z,2.80
2019-03-26T06:55:08.003Z,3.10
2019-03-26T06:57:36.766Z,3.10
2019-03-26T07:00:10.356Z,3.47
2019-03-26T07:02:38.849Z,3.33
2019-03-26T07:05:07.263Z,2.83
2019-03-26T07:07:35.680Z,2.83
2019-03-26T07:10:06.834Z,3.03
2019-03-26T07:12:35.330Z,3.33
2019-03-26T07:15:04.953Z,3.17
2019-03-26T07:17:33.355Z,3.57
2019-03-26T07:20:01.783Z,3.00
2019-03-26T07:22:30.187Z,3.57
2019-03-26T07:24:58.573Z,3.80
2019-03-26T07:27:26.967Z,4.40
2019-03-26T07:29:55.521Z,3.97
2019-03-26T07:32:23.911Z,2.80
2019-03-26T07:34:52.306Z,3.10
2019-03-26T07:37:20.686Z,3.43
2019-03-26T07:39:49.095Z,3.13
2019-03-26T07:42:17.490Z,2.83
2019-03-26T07:44:45.900Z,3.20
2019-03-26T07:47:14.303Z,3.63
2019-03-26T07:49:42.715Z,3.07
2019-03-26T07:52:11.136Z,3.13
2019-03-26T07:54:39.546Z,3.43
2019-03-26T07:57:07.945Z,3.20
2019-03-26T07:59:36.335Z,3.47
2019-03-26T08:02:04.750Z,3.60
2019-03-26T08:04:33.172Z,3.20
2019-03-26T08:07:01.590Z,3.37
2019-03-26T08:09:31.739Z,3.13
2019-03-26T08:12:00.059Z,2.90
2019-03-26T08:14:28.517Z,4.00
2019-03-26T08:16:56.934Z,3.50
2019-03-26T08:19:25.330Z,3.33
2019-03-26T08:21:53.738Z,3.53
2019-03-26T08:24:22.134Z,3.00
2019-03-26T08:26:52.041Z,3.77
2019-03-26T08:29:20.673Z,3.23
2019-03-26T08:31:49.054Z,3.17
2019-03-26T08:34:17.463Z,3.67
2019-03-26T08:36:45.839Z,2.97
2019-03-26T08:39:14.261Z,3.80
2019-03-26T08:41:42.670Z,3.73
2019-03-26T08:44:11.052Z,3.53
2019-03-26T08:46:40.445Z,3.53
2019-03-26T08:49:08.821Z,3.87
2019-03-26T08:51:37.265Z,2.93
2019-03-26T08:54:05.684Z,3.20
2019-03-26T08:56:34.157Z,3.27
2019-03-26T08:59:02.477Z,3.60
2019-03-26T09:01:30.937Z,3.60
2019-03-26T09:03:59.327Z,2.23
2019-03-26T09:06:27.809Z,3.00
2019-03-26T09:08:56.218Z,3.60
2019-03-26T09:11:24.635Z,3.40
2019-03-26T09:13:53.101Z,2.83
2019-03-26T09:16:21.565Z,3.40
2019-03-26T09:18:49.999Z,2.90
2019-03-26T09:21:18.372Z,2.83
2019-03-26T09:23:46.859Z,3.17
2019-03-26T09:26:15.244Z,3.00
2019-03-26T09:28:43.655Z,5.00
2019-03-26T09:31:12.055Z,3.33
2019-03-26T09:33:40.515Z,3.27
2019-03-26T09:36:08.926Z,3.30
2019-03-26T09:38:39.181Z,3.57
2019-03-26T09:41:07.455Z,3.10
2019-03-26T09:43:35.835Z,3.00
2019-03-26T09:46:04.284Z,2.83
2019-03-26T09:48:32.674Z,3.07
2019-03-26T09:51:01.111Z,3.03
2019-03-26T09:53:29.549Z,3.13
2019-03-26T09:55:57.968Z,2.77
2019-03-26T09:58:26.508Z,2.30
2019-03-26T10:00:54.892Z,2.27
2019-03-26T10:03:23.289Z,2.73
2019-03-26T10:05:51.735Z,2.50
2019-03-26T10:08:20.213Z,2.07
2019-03-26T10:10:48.611Z,2.57
2019-03-26T10:13:17.001Z,2.00
2019-03-26T10:15:45.419Z,2.77
2019-03-26T10:18:13.900Z,2.77
2019-03-26T10:20:42.323Z,2.23
2019-03-26T10:23:10.740Z,2.93
2019-03-26T10:25:39.187Z,2.33
2019-03-26T10:28:07.591Z,2.97
2019-03-26T10:30:39.661Z,1.90
2019-03-26T10:33:08.205Z,2.37
2019-03-26T10:35:36.635Z,2.47
2019-03-26T10:38:05.031Z,2.43
2019-03-26T10:40:35.836Z,2.33
2019-03-26T10:43:04.296Z,2.23
2019-03-26T10:45:32.710Z,2.20
2019-03-26T10:48:01.079Z,2.43
2019-03-26T10:50:29.493Z,2.40
2019-03-26T10:52:57.881Z,2.40
2019-03-26T10:55:26.265Z,2.80
2019-03-26T10:57:54.770Z,2.53
2019-03-26T11:00:23.281Z,2.87
2019-03-26T11:02:54.074Z,2.70
2019-03-26T11:05:21.730Z,2.73
2019-03-26T11:07:50.237Z,2.57
2019-03-26T11:10:18.729Z,2.87
2019-03-26T11:12:47.258Z,2.60
2019-03-26T11:15:15.663Z,2.87
2019-03-26T11:17:44.087Z,3.00
2019-03-26T11:20:12.493Z,2.50
2019-03-26T11:22:40.866Z,5.23
2019-03-26T11:25:12.043Z,3.03
2019-03-26T11:27:39.365Z,9.23
2019-03-26T11:30:07.784Z,12.07
2019-03-26T11:32:36.231Z,7.00
2019-03-26T11:35:06.781Z,3.13
2019-03-26T11:37:36.152Z,2.80
2019-03-26T11:40:06.882Z,3.03
2019-03-26T11:42:35.311Z,3.00
2019-03-26T11:45:05.322Z,2.40
2019-03-26T11:47:33.736Z,2.47
2019-03-26T11:50:04.663Z,2.53
2019-03-26T11:52:32.271Z,2.53
2019-03-26T11:55:00.691Z,2.43
2019-03-26T11:57:29.198Z,2.63
2019-03-26T11:59:57.599Z,3.00
2019-03-26T12:02:26.126Z,2.53
2019-03-26T12:04:54.529Z,2.63
2019-03-26T12:07:23.008Z,2.87
2019-03-26T12:09:51.405Z,2.57
2019-03-26T12:12:20.151Z,3.07
2019-03-26T12:14:48.523Z,2.53
2019-03-26T12:17:16.903Z,2.40
2019-03-26T12:19:45.291Z,3.00
2019-03-26T12:22:13.691Z,2.60
2019-03-26T12:24:42.079Z,2.83
2019-03-26T12:27:10.497Z,3.27
2019-03-26T12:29:38.902Z,2.60
2019-03-26T12:32:07.315Z,3.10
2019-03-26T12:34:35.763Z,2.73
2019-03-26T12:37:04.220Z,2.70
2019-03-26T12:39:32.881Z,2.97
2019-03-26T12:42:01.286Z,2.77
2019-03-26T12:44:29.712Z,3.17
2019-03-26T12:46:58.472Z,2.60
2019-03-26T12:49:26.942Z,3.33
2019-03-26T12:51:55.364Z,2.57
2019-03-26T12:54:23.840Z,3.37
2019-03-26T12:56:52.256Z,2.63
2019-03-26T12:59:20.719Z,3.70
2019-03-26T13:01:49.115Z,2.20
2019-03-26T13:04:17.493Z,3.10
2019-03-26T13:06:47.850Z,2.60
2019-03-26T13:09:16.240Z,2.57
2019-03-26T13:11:44.638Z,3.33
2019-03-26T13:14:13.120Z,3.10
2019-03-26T13:16:41.541Z,4.03
2019-03-26T13:19:09.940Z,3.20
2019-03-26T13:21:38.432Z,2.80
2019-03-26T13:24:06.834Z,3.00
2019-03-26T13:26:35.213Z,4.57
2019-03-26T13:29:03.628Z,5.00
2019-03-26T13:31:32.087Z,3.07
2019-03-26T13:34:00.478Z,3.20
2019-03-26T13:36:28.855Z,3.00
2019-03-26T13:38:57.271Z,2.97
2019-03-26T13:41:25.652Z,3.20
2019-03-26T13:43:54.030Z,2.67
2019-03-26T13:46:22.547Z,3.60
2019-03-26T13:48:50.981Z,2.87
2019-03-26T13:51:19.390Z,2.30
2019-03-26T13:53:47.778Z,2.53
2019-03-26T13:56:16.195Z,2.87
2019-03-26T13:58:44.565Z,2.40
2019-03-26T14:01:13.071Z,2.80
2019-03-26T14:03:41.523Z,2.87
2019-03-26T14:06:09.933Z,2.60
2019-03-26T14:08:38.416Z,2.57
2019-03-26T14:11:06.804Z,3.03
2019-03-26T14:13:36.914Z,3.30
2019-03-26T14:16:05.290Z,3.20
2019-03-26T14:18:33.709Z,2.63
2019-03-26T14:21:02.126Z,3.00
2019-03-26T14:23:30.589Z,3.23
2019-03-26T14:25:58.984Z,3.30
2019-03-26T14:28:27.363Z,2.87
2019-03-26T14:30:55.774Z,3.43
2019-03-26T14:33:24.155Z,3.37
2019-03-26T14:35:52.571Z,3.10
2019-03-26T14:38:21.027Z,3.43
2019-03-26T14:40:55.186Z,3.30
2019-03-26T14:43:19.471Z,3.50
2019-03-26T14:45:47.868Z,3.13
2019-03-26T14:48:16.384Z,2.73
2019-03-26T14:50:44.794Z,3.00
2019-03-26T14:53:13.199Z,3.40
2019-03-26T14:55:41.620Z,3.40
2019-03-26T14:58:10.046Z,3.63
2019-03-26T15:00:38.491Z,3.13
2019-03-26T15:03:06.878Z,3.33
2019-03-26T15:05:35.279Z,4.00
2019-03-26T15:08:03.731Z,3.97
2019-03-26T15:10:32.208Z,3.60
2019-03-26T15:13:00.612Z,4.10
2019-03-26T15:15:28.996Z,5.07
2019-03-26T15:17:57.404Z,4.03
2019-03-26T15:20:25.802Z,4.13
2019-03-26T15:22:54.209Z,4.50
2019-03-26T15:25:22.638Z,4.03
2019-03-26T15:27:51.013Z,4.10
2019-03-26T15:30:19.831Z,4.40
2019-03-26T15:32:48.237Z,4.13
2019-03-26T15:35:16.627Z,4.53
2019-03-26T15:37:45.020Z,4.33
2019-03-26T15:40:13.473Z,4.93
2019-03-26T15:42:41.861Z,5.67
2019-03-26T15:45:10.235Z,5.40
2019-03-26T15:47:38.607Z,5.07
2019-03-26T15:50:07.080Z,5.93
2019-03-26T15:52:35.483Z,6.93
2019-03-26T15:55:04.783Z,5.97
2019-03-26T15:57:33.270Z,6.53
2019-03-26T16:00:01.653Z,7.50
2019-03-26T16:02:30.083Z,7.77
2019-03-26T16:04:58.536Z,7.17
2019-03-26T16:07:26.924Z,7.87
2019-03-26T16:09:55.349Z,8.20
2019-03-26T16:12:23.747Z,6.87
2019-03-26T16:14:52.144Z,7.03
2019-03-26T16:17:20.552Z,6.30
2019-03-26T16:19:48.947Z,6.33
2019-03-26T16:22:17.952Z,6.07
2019-03-26T16:24:46.476Z,5.23
2019-03-26T16:27:14.871Z,5.20
2019-03-26T16:29:43.275Z,5.97
2019-03-26T16:32:11.679Z,5.93
2019-03-26T16:34:40.059Z,5.47
2019-03-26T16:37:08.472Z,6.43
2019-03-26T16:39:36.936Z,5.03
2019-03-26T16:42:05.356Z,6.53
2019-03-26T16:44:33.734Z,5.60
2019-03-26T16:47:02.153Z,5.30
2019-03-26T16:49:30.535Z,6.33
2019-03-26T16:51:58.953Z,5.83
2019-03-26T16:54:27.319Z,5.53
2019-03-26T16:56:55.911Z,5.97
2019-03-26T16:59:24.913Z,5.73
2019-03-26T17:01:53.324Z,5.47
2019-03-26T17:04:21.731Z,5.30
2019-03-26T17:06:50.106Z,5.33
2019-03-26T17:09:18.527Z,6.00
2019-03-26T17:11:46.919Z,5.63
2019-03-26T17:14:15.343Z,5.93
2019-03-26T17:16:43.750Z,6.07
2019-03-26T17:19:12.162Z,5.60
2019-03-26T17:21:40.553Z,6.07
2019-03-26T17:24:08.950Z,5.63
2019-03-26T17:26:37.349Z,5.77
2019-03-26T17:29:05.743Z,6.10
2019-03-26T17:31:34.140Z,5.43
2019-03-26T17:34:02.551Z,5.63
2019-03-26T17:36:30.970Z,6.70
2019-03-26T17:38:59.354Z,5.43
2019-03-26T17:41:27.772Z,5.60
2019-03-26T17:43:56.170Z,5.87
2019-03-26T17:46:24.634Z,4.47
2019-03-26T17:48:53.043Z,5.27
2019-03-26T17:51:21.422Z,5.77
2019-03-26T17:53:49.842Z,5.63
2019-03-26T17:56:18.220Z,5.20
2019-03-26T17:58:46.654Z,4.70
2019-03-26T18:01:15.007Z,5.13
2019-03-26T18:03:43.482Z,5.23
2019-03-26T18:06:11.916Z,5.50
2019-03-26T18:08:40.271Z,5.77
2019-03-26T18:11:08.659Z,5.50
2019-03-26T18:13:37.077Z,5.27
2019-03-26T18:16:05.467Z,6.10
2019-03-26T18:18:33.871Z,6.50
2019-03-26T18:21:02.261Z,6.20
2019-03-26T18:23:30.676Z,5.67
2019-03-26T18:25:59.124Z,6.03
2019-03-26T18:28:27.534Z,6.07
2019-03-26T18:30:55.953Z,6.37
2019-03-26T18:33:24.447Z,5.83
2019-03-26T18:35:52.861Z,5.80
2019-03-26T18:38:21.268Z,5.53
2019-03-26T18:40:49.710Z,6.00
2019-03-26T18:43:18.133Z,5.13
2019-03-26T18:45:46.518Z,4.50
2019-03-26T18:48:14.951Z,6.03
2019-03-26T18:50:43.384Z,5.33
2019-03-26T18:53:11.820Z,6.10
2019-03-26T18:55:40.183Z,5.23
2019-03-26T18:58:08.583Z,5.77
2019-03-26T19:00:40.148Z,5.47
2019-03-26T19:03:08.990Z,5.73
2019-03-26T19:05:37.423Z,5.07
2019-03-26T19:08:05.824Z,4.83
2019-03-26T19:10:35.183Z,5.97
2019-03-26T19:13:03.647Z,5.43
2019-03-26T19:15:32.072Z,5.50
2019-03-26T19:18:00.465Z,4.90
2019-03-26T19:20:28.881Z,5.20
2019-03-26T19:22:57.298Z,6.53
2019-03-26T19:25:26.184Z,4.53
2019-03-26T19:27:54.592Z,4.73
2019-03-26T19:30:23.010Z,5.13
2019-03-26T19:32:51.416Z,3.90
2019-03-26T19:35:19.866Z,4.73
2019-03-26T19:37:48.220Z,5.07
2019-03-26T19:40:16.744Z,4.30
2019-03-26T19:42:45.143Z,4.07
2019-03-26T19:45:13.865Z,3.93
2019-03-26T19:47:42.279Z,4.27
2019-03-26T19:50:10.667Z,5.17
2019-03-26T19:52:39.093Z,4.73
2019-03-26T19:55:07.688Z,3.83
2019-03-26T19:57:36.730Z,3.53
2019-03-26T20:00:08.387Z,3.27
2019-03-26T20:02:36.848Z,3.27
2019-03-26T20:05:06.528Z,3.40
2019-03-26T20:07:35.572Z,3.10
2019-03-26T20:10:07.336Z,3.63
2019-03-26T20:12:36.481Z,3.67
2019-03-26T20:15:07.263Z,3.83
2019-03-26T20:17:35.682Z,3.90
2019-03-26T20:20:04.476Z,3.00
2019-03-26T20:22:32.851Z,3.57
2019-03-26T20:25:01.622Z,2.93
2019-03-26T20:27:29.988Z,3.70
2019-03-26T20:29:58.383Z,3.63
2019-03-26T20:32:26.771Z,3.37
2019-03-26T20:34:55.184Z,3.97
2019-03-26T20:37:23.556Z,3.43
2019-03-26T20:39:52.046Z,3.43
2019-03-26T20:42:20.440Z,3.60
2019-03-26T20:44:48.896Z,3.53
2019-03-26T20:47:17.276Z,3.63
2019-03-26T20:49:45.729Z,3.60
2019-03-26T20:52:14.138Z,3.40
2019-03-26T20:54:42.617Z,3.50
2019-03-26T20:57:11.000Z,3.37
2019-03-26T20:59:39.465Z,3.40
2019-03-26T21:02:07.917Z,3.77
2019-03-26T21:04:36.379Z,3.70
2019-03-26T21:07:04.804Z,2.80
2019-03-26T21:09:33.250Z,3.27
2019-03-26T21:12:01.669Z,3.00
2019-03-26T21:14:30.092Z,3.17
2019-03-26T21:16:58.483Z,3.50
2019-03-26T21:19:26.883Z,3.10
2019-03-26T21:21:55.295Z,3.40
2019-03-26T21:24:23.695Z,2.60
2019-03-26T21:26:52.126Z,3.20
2019-03-26T21:29:20.507Z,3.00
2019-03-26T21:31:48.909Z,2.77
2019-03-26T21:34:29.982Z,3.40
2019-03-26T21:36:47.416Z,3.10
2019-03-26T21:39:15.908Z,3.20
2019-03-26T21:41:44.319Z,3.87
2019-03-26T21:44:12.731Z,2.77
2019-03-26T21:46:41.240Z,2.53
2019-03-26T21:49:09.717Z,3.80
2019-03-26T21:51:38.160Z,2.90
2019-03-26T21:54:06.563Z,2.60
2019-03-26T21:56:35.044Z,2.67
2019-03-26T21:59:03.505Z,2.40
2019-03-26T22:01:31.896Z,2.87
2019-03-26T22:04:00.295Z,2.40
2019-03-26T22:06:28.679Z,2.90
2019-03-26T22:08:57.109Z,3.23
2019-03-26T22:11:25.486Z,3.70
2019-03-26T22:13:53.880Z,2.33
2019-03-26T22:16:22.300Z,3.70
2019-03-26T22:18:50.699Z,3.03
2019-03-26T22:21:19.102Z,3.00
2019-03-26T22:23:47.530Z,3.73
2019-03-26T22:26:15.932Z,2.80
2019-03-26T22:28:44.312Z,2.90
2019-03-26T22:31:12.718Z,2.77
2019-03-26T22:33:41.117Z,3.00
2019-03-26T22:36:09.494Z,2.57
2019-03-26T22:38:37.923Z,2.90
2019-03-26T22:41:06.314Z,2.80
2019-03-26T22:43:34.734Z,2.70
2019-03-26T22:46:03.115Z,2.40
2019-03-26T22:48:31.499Z,2.60
2019-03-26T22:50:59.888Z,2.70
2019-03-26T22:53:28.285Z,3.20
2019-03-26T22:55:56.679Z,2.20
2019-03-26T22:58:25.046Z,3.50
2019-03-26T23:00:53.748Z,2.93
2019-03-26T23:03:22.094Z,2.67
2019-03-26T23:05:50.500Z,2.40
2019-03-26T23:08:18.879Z,2.53
2019-03-26T23:10:47.292Z,2.47
2019-03-26T23:13:15.695Z,2.97
2019-03-26T23:15:44.152Z,2.20
2019-03-26T23:18:12.540Z,2.87
2019-03-26T23:20:40.924Z,2.20
2019-03-26T23:23:09.334Z,3.37
2019-03-26T23:25:37.714Z,2.60
2019-03-26T23:28:06.116Z,2.53
2019-03-26T23:30:34.499Z,2.60
2019-03-26T23:33:02.895Z,3.37
2019-03-26T23:35:31.296Z,2.17
2019-03-26T23:37:59.775Z,2.50
2019-03-26T23:40:28.191Z,2.63
2019-03-26T23:42:56.634Z,2.47
2019-03-26T23:45:25.937Z,2.43
2019-03-26T23:47:54.351Z,2.63
2019-03-26T23:50:22.729Z,2.47
2019-03-26T23:52:51.151Z,1.80
2019-03-26T23:55:19.527Z,2.23
2019-03-26T23:57:47.942Z,2.33
